Time;durP1;ratioP1;P1;durP2;ratioP2;P2;SDS_P1;SDS_P2;PMS_P1;PMS_P2;Temp;Humidity;BMP_temperature;BMP_pressure;BME280_temperature;BME280_humidity;BME280_pressure;Samples;Min_cycle;Max_cycle;Signal;HPM_P1;HPM_P2
2022/03/22 00:02:23;;;;;;;48.92;32.50;;;6.00;99.90;;;;;;4989163;28;20657;-84
2022/03/22 00:04:50;;;;;;;46.50;31.95;;;5.90;99.90;;;;;;4942234;28;105247;-84
2022/03/22 00:07:16;;;;;;;45.58;32.15;;;5.90;99.90;;;;;;4979468;28;20042;-84
2022/03/22 00:09:43;;;;;;;46.35;32.65;;;5.90;99.90;;;;;;4963113;28;68881;-84
2022/03/22 00:12:10;;;;;;;51.17;33.17;;;5.90;99.90;;;;;;4998345;28;20514;-84
2022/03/22 00:14:36;;;;;;;48.60;33.67;;;5.90;99.90;;;;;;4962842;28;244193;-84
2022/03/22 00:17:03;;;;;;;50.72;32.80;;;5.80;99.90;;;;;;4987912;28;20061;-84
2022/03/22 00:19:30;;;;;;;49.17;33.35;;;5.80;99.90;;;;;;4943673;28;169169;-84
2022/03/22 00:21:56;;;;;;;47.90;33.45;;;5.80;99.90;;;;;;4987977;28;20050;-85
2022/03/22 00:24:22;;;;;;;49.15;34.22;;;5.70;99.90;;;;;;4952850;28;42126;-83
2022/03/22 00:26:48;;;;;;;48.30;32.40;;;5.70;99.90;;;;;;4991217;28;20061;-84
2022/03/22 00:29:14;;;;;;;46.55;32.53;;;5.70;99.90;;;;;;4976804;28;161380;-85
2022/03/22 00:31:41;;;;;;;56.60;36.30;;;5.60;99.90;;;;;;4963347;28;20041;-85
2022/03/22 00:34:07;;;;;;;49.72;34.20;;;5.60;99.90;;;;;;4975245;28;264422;-84
2022/03/22 00:36:34;;;;;;;50.08;34.58;;;5.60;99.90;;;;;;4974000;28;20049;-85
2022/03/22 00:39:03;;;;;;;48.28;34.83;;;5.60;99.90;;;;;;4986568;28;266520;-85
2022/03/22 00:41:30;;;;;;;50.17;35.25;;;5.60;99.90;;;;;;4952849;28;20045;-85
2022/03/22 00:43:57;;;;;;;53.25;35.25;;;5.50;99.90;;;;;;4994712;28;236930;-85
2022/03/22 00:46:23;;;;;;;51.72;36.75;;;5.50;99.90;;;;;;4955342;28;20034;-85
2022/03/22 00:48:49;;;;;;;49.40;33.58;;;5.50;99.90;;;;;;4988475;28;264200;-85
2022/03/22 00:51:16;;;;;;;48.13;34.60;;;5.50;99.90;;;;;;4937121;28;20443;-85
2022/03/22 00:53:42;;;;;;;50.65;35.13;;;5.50;99.90;;;;;;4991165;28;20061;-84
2022/03/22 00:56:08;;;;;;;51.38;37.20;;;5.50;99.90;;;;;;4941133;28;186653;-85
2022/03/22 00:58:35;;;;;;;51.22;35.90;;;5.50;99.90;;;;;;5003476;28;20514;-85
2022/03/22 01:01:01;;;;;;;51.65;36.70;;;5.50;99.90;;;;;;4952901;28;29872;-85
2022/03/22 01:03:28;;;;;;;53.53;37.58;;;5.50;99.90;;;;;;5019533;28;20046;-85
2022/03/22 01:05:56;;;;;;;56.42;38.05;;;5.50;99.90;;;;;;4932278;28;164830;-85
2022/03/22 01:08:23;;;;;;;53.35;35.67;;;5.50;99.90;;;;;;5003830;28;20051;-85
2022/03/22 01:10:55;;;;;;;56.60;38.20;;;5.50;99.90;;;;;;4956603;28;274514;-84
2022/03/22 01:13:23;;;;;;;55.70;37.67;;;5.50;99.90;;;;;;4986387;28;20065;-85
2022/03/22 01:15:50;;;;;;;58.92;39.33;;;5.50;99.90;;;;;;4934083;28;182291;-85
2022/03/22 01:18:17;;;;;;;53.22;38.72;;;5.50;99.90;;;;;;4981471;28;20042;-85
2022/03/22 01:20:46;;;;;;;55.17;38.08;;;5.40;99.90;;;;;;4962227;28;61654;-84
2022/03/22 01:23:15;;;;;;;52.85;37.50;;;5.50;99.90;;;;;;4991280;28;20058;-85
2022/03/22 01:25:43;;;;;;;56.58;38.03;;;5.50;99.90;;;;;;4925840;28;122667;-85
2022/03/22 01:28:11;;;;;;;51.03;36.67;;;5.50;99.90;;;;;;4972510;28;20065;-85
2022/03/22 01:30:38;;;;;;;54.72;36.47;;;5.50;99.90;;;;;;4933557;28;182308;-84
2022/03/22 01:33:05;;;;;;;52.53;37.97;;;5.50;99.90;;;;;;4981806;28;20049;-85
2022/03/22 01:35:32;;;;;;;55.80;38.40;;;5.40;99.90;;;;;;4938211;28;219551;-85
2022/03/22 01:37:59;;;;;;;51.17;34.72;;;5.50;99.90;;;;;;5006127;28;20077;-85
2022/03/22 01:40:27;;;;;;;53.53;34.85;;;5.40;99.90;;;;;;4964063;28;210910;-85
2022/03/22 01:42:54;;;;;;;49.92;34.72;;;5.40;99.90;;;;;;5014045;28;20324;-83
2022/03/22 01:45:20;;;;;;;48.88;34.38;;;5.40;99.90;;;;;;4940319;28;169452;-85
2022/03/22 01:47:48;;;;;;;50.47;34.78;;;5.40;99.90;;;;;;4983448;28;20502;-83
2022/03/22 01:50:19;;;;;;;54.40;36.08;;;5.40;99.90;;;;;;4933814;28;198351;-84
2022/03/22 01:52:46;;;;;;;;;;;5.30;99.90;;;;;;4970958;28;20054;-84
2022/03/22 01:55:16;;;;;;;48.70;32.95;;;5.30;99.90;;;;;;4953341;28;148552;-85
2022/03/22 01:57:42;;;;;;;48.60;32.55;;;5.30;99.90;;;;;;4988799;28;20450;-85
2022/03/22 02:00:15;;;;;;;48.65;34.97;;;5.30;99.90;;;;;;4943403;28;55800;-84
2022/03/22 02:08:33;;;;;;;53.38;34.80;;;5.40;99.90;;;;;;4995202;28;20029;-86
2022/03/22 02:11:00;;;;;;;51.30;35.13;;;5.40;99.90;;;;;;4942374;28;85234;-86
2022/03/22 02:13:28;;;;;;;49.25;34.10;;;5.40;99.90;;;;;;4983602;28;20057;-86
2022/03/22 02:15:57;;;;;;;49.80;33.58;;;5.30;99.90;;;;;;4915008;28;104617;-84
2022/03/22 02:18:24;;;;;;;48.13;32.78;;;5.30;99.90;;;;;;4956295;28;20054;-86
2022/03/22 02:20:50;;;;;;;52.08;35.17;;;5.30;99.90;;;;;;4891496;28;20154;-85
2022/03/22 02:23:51;;;;;;;49.58;35.00;;;5.30;99.90;;;;;;4963288;28;20050;-85
2022/03/22 02:26:18;;;;;;;53.60;35.42;;;5.20;99.90;;;;;;4906770;28;20042;-86
2022/03/22 02:28:45;;;;;;;47.97;33.97;;;5.20;99.90;;;;;;4986605;28;20061;-85
2022/03/22 02:31:13;;;;;;;50.50;33.83;;;5.20;99.90;;;;;;4909832;28;109861;-86
2022/03/22 02:33:41;;;;;;;54.65;36.58;;;5.20;99.90;;;;;;4974347;28;20062;-86
2022/03/22 02:36:08;;;;;;;54.60;36.63;;;5.10;99.90;;;;;;4940842;28;164989;-85
2022/03/22 02:38:34;;;;;;;50.38;36.88;;;5.10;99.90;;;;;;4953463;28;20053;-86
2022/03/22 02:41:01;;;;;;;54.92;34.83;;;5.10;99.90;;;;;;4934534;28;94503;-85
2022/03/22 02:43:27;;;;;;;49.72;34.95;;;5.10;99.90;;;;;;4987100;28;20041;-85
2022/03/22 02:45:53;;;;;;;47.45;32.75;;;5.10;99.90;;;;;;4937741;28;174790;-85
2022/03/22 02:48:19;;;;;;;51.92;35.85;;;5.10;99.90;;;;;;4985443;28;20061;-85
2022/03/22 02:50:46;;;;;;;51.65;35.90;;;5.00;99.90;;;;;;4962079;28;64500;-85
2022/03/22 02:53:13;;;;;;;55.92;37.40;;;5.00;99.90;;;;;;4986477;28;20415;-86
2022/03/22 02:55:39;;;;;;;53.10;35.90;;;5.00;99.90;;;;;;4936886;28;180879;-85
2022/03/22 02:58:05;;;;;;;61.83;38.72;;;5.00;99.90;;;;;;5002301;28;20052;-85
2022/03/22 03:00:32;;;;;;;51.60;35.35;;;5.00;99.90;;;;;;4950135;28;111201;-85
2022/03/22 03:02:59;;;;;;;52.60;36.50;;;4.90;99.90;;;;;;4981850;28;20049;-85
2022/03/22 03:05:25;;;;;;;50.50;35.42;;;4.90;99.90;;;;;;4912054;28;147902;-85
2022/03/22 03:07:51;;;;;;;52.97;34.78;;;4.90;99.90;;;;;;4977812;28;20615;-85
2022/03/22 03:10:18;;;;;;;54.10;37.60;;;4.90;99.90;;;;;;4969801;28;83535;-86
2022/03/22 03:12:44;;;;;;;54.20;36.53;;;4.90;99.90;;;;;;4997567;28;20064;-85
2022/03/22 03:15:11;;;;;;;54.55;36.00;;;4.90;99.90;;;;;;4981399;28;68115;-86
2022/03/22 03:17:40;;;;;;;55.47;36.33;;;4.90;99.90;;;;;;4991270;28;20072;-86
2022/03/22 03:20:07;;;;;;;56.42;37.20;;;4.90;99.90;;;;;;4957859;28;148209;-86
2022/03/22 03:22:34;;;;;;;51.63;35.47;;;4.90;99.90;;;;;;4984779;28;20056;-86
2022/03/22 03:25:00;;;;;;;51.65;35.50;;;4.90;99.90;;;;;;4944559;28;195983;-86
2022/03/22 03:27:26;;;;;;;52.33;34.17;;;4.90;99.90;;;;;;5003009;28;20073;-86
2022/03/22 03:29:53;;;;;;;49.70;31.77;;;4.90;99.90;;;;;;4945822;28;118945;-86
2022/03/22 03:32:19;;;;;;;54.85;36.58;;;4.90;99.90;;;;;;4979304;28;20053;-86
2022/03/22 03:34:45;;;;;;;51.30;34.85;;;4.90;99.90;;;;;;4958941;28;112058;-87
2022/03/22 03:37:11;;;;;;;47.97;34.63;;;4.90;99.90;;;;;;4977374;28;20062;-85
2022/03/22 03:39:38;;;;;;;57.55;37.05;;;4.90;99.90;;;;;;4943027;28;120445;-85
2022/03/22 03:42:06;;;;;;;52.33;37.25;;;4.90;99.90;;;;;;4974705;28;20069;-85
2022/03/22 03:47:22;;;;;;;52.33;36.08;;;4.90;99.90;;;;;;4983992;28;20053;-86
2022/03/22 03:49:49;;;;;;;56.22;37.15;;;4.90;99.90;;;;;;4960495;28;223065;-85
2022/03/22 03:52:19;;;;;;;49.17;34.15;;;4.90;99.90;;;;;;5000715;28;20081;-85
2022/03/22 03:54:45;;;;;;;59.63;36.42;;;4.90;99.90;;;;;;4946055;28;233982;-85
2022/03/22 03:57:13;;;;;;;52.95;36.42;;;4.80;99.90;;;;;;4973327;28;20073;-86
2022/03/22 03:59:40;;;;;;;49.47;35.00;;;4.80;99.90;;;;;;4951168;28;34946;-86
2022/03/22 04:02:07;;;;;;;51.45;36.38;;;4.90;99.90;;;;;;4996585;28;20057;-86
2022/03/22 04:04:37;;;;;;;51.25;35.65;;;4.90;99.90;;;;;;4942210;28;135798;-86
2022/03/22 04:07:05;;;;;;;52.80;36.70;;;4.80;99.90;;;;;;4972553;28;20069;-86
2022/03/22 04:09:32;;;;;;;50.63;35.33;;;4.90;99.90;;;;;;4960695;28;67215;-86
2022/03/22 04:11:59;;;;;;;58.58;35.88;;;4.90;99.90;;;;;;4968979;28;20054;-86
2022/03/22 04:14:27;;;;;;;49.83;35.58;;;4.90;99.90;;;;;;4943390;28;235998;-85
2022/03/22 04:16:53;;;;;;;54.33;35.10;;;4.90;99.90;;;;;;5000485;28;20065;-86
2022/03/22 04:19:19;;;;;;;54.78;35.85;;;4.90;99.90;;;;;;4960113;28;195747;-86
2022/03/22 04:21:46;;;;;;;52.70;34.95;;;4.90;99.90;;;;;;4953205;28;20046;-86
2022/03/22 04:24:12;;;;;;;56.67;36.50;;;4.90;99.90;;;;;;4977749;28;75894;-86
2022/03/22 04:26:41;;;;;;;54.15;35.38;;;4.90;99.90;;;;;;4940564;28;20439;-86
2022/03/22 04:34:39;;;;;;;49.85;35.70;;;4.80;99.90;;;;;;4965530;28;24656;-85
2022/03/22 04:37:06;;;;;;;51.53;34.95;;;4.90;99.90;;;;;;4999864;28;20136;-86
2022/03/22 04:39:36;;;;;;;51.70;35.72;;;4.80;99.90;;;;;;4947018;28;45508;-86
2022/03/22 04:42:03;;;;;;;47.63;33.75;;;4.80;99.90;;;;;;4982085;28;20668;-86
2022/03/22 04:44:29;;;;;;;53.38;36.17;;;4.80;99.90;;;;;;4942903;28;206877;-86
2022/03/22 04:46:57;;;;;;;49.60;35.47;;;4.80;99.90;;;;;;4997226;28;20064;-86
2022/03/22 04:49:25;;;;;;;53.30;35.05;;;4.70;99.90;;;;;;4950414;28;160022;-86
2022/03/22 04:57:24;;;;;;;46.72;32.67;;;4.70;99.90;;;;;;4994067;28;20057;-86
2022/03/22 04:59:50;;;;;;;51.53;34.83;;;4.60;99.90;;;;;;4956199;28;58483;-86
2022/03/22 05:02:16;;;;;;;48.38;33.00;;;4.60;99.90;;;;;;4987580;28;20046;-86
2022/03/22 05:04:43;;;;;;;52.38;33.72;;;4.50;99.90;;;;;;4941536;28;120152;-86
2022/03/22 05:07:09;;;;;;;51.50;34.80;;;4.50;99.90;;;;;;5000650;28;20435;-85
2022/03/22 05:09:36;;;;;;;50.20;34.60;;;4.50;99.90;;;;;;4947236;28;221966;-86
2022/03/22 05:12:02;;;;;;;50.45;32.40;;;4.40;99.90;;;;;;4986640;28;20073;-86
2022/03/22 05:14:29;;;;;;;49.35;32.60;;;4.40;99.90;;;;;;4950760;28;20065;-85
2022/03/22 05:16:58;;;;;;;54.53;34.47;;;4.40;99.90;;;;;;4969451;28;20046;-86
2022/03/22 05:19:25;;;;;;;52.67;36.08;;;4.40;99.90;;;;;;4950300;28;66042;-85
2022/03/22 05:21:52;;;;;;;55.88;36.42;;;4.40;99.90;;;;;;4972940;28;20053;-86
2022/03/22 05:24:19;;;;;;;50.60;32.83;;;4.30;99.90;;;;;;4994506;28;20407;-85
2022/03/22 05:26:49;;;;;;;47.60;33.78;;;4.30;99.90;;;;;;4950530;28;20392;-86
2022/03/22 05:29:17;;;;;;;47.85;33.75;;;4.20;99.90;;;;;;4974038;28;245246;-85
2022/03/22 05:31:45;;;;;;;52.63;34.70;;;4.20;99.90;;;;;;4972160;28;20029;-87
2022/03/22 05:34:12;;;;;;;51.40;34.58;;;4.20;99.90;;;;;;4974677;28;171503;-86
2022/03/22 05:36:38;;;;;;;49.00;34.30;;;4.20;99.90;;;;;;4948318;28;20476;-85
2022/03/22 05:39:04;;;;;;;53.90;35.03;;;4.20;99.90;;;;;;4981086;28;261279;-87
2022/03/22 05:41:30;;;;;;;50.88;32.92;;;4.10;99.90;;;;;;4987773;28;20029;-86
2022/03/22 05:43:57;;;;;;;49.73;34.67;;;4.20;99.90;;;;;;4997642;28;256648;-86
2022/03/22 05:46:23;;;;;;;55.78;35.45;;;4.10;99.90;;;;;;4978907;28;20054;-86
2022/03/22 05:48:50;;;;;;;55.05;34.08;;;4.20;99.90;;;;;;4988853;28;259992;-85
2022/03/22 05:51:17;;;;;;;52.38;34.85;;;4.20;99.90;;;;;;4943265;28;20051;-86
2022/03/22 05:53:44;;;;;;;49.60;34.63;;;4.20;99.90;;;;;;4991567;28;20054;-87
2022/03/22 05:56:11;;;;;;;53.00;36.20;;;4.20;99.90;;;;;;4932954;28;20222;-84
2022/03/22 05:58:37;;;;;;;51.22;35.63;;;4.30;99.90;;;;;;4989624;28;20046;-85
2022/03/22 06:01:07;;;;;;;56.95;38.30;;;4.30;99.90;;;;;;4933418;28;90697;-84
2022/03/22 06:03:34;;;;;;;56.38;36.95;;;4.30;99.90;;;;;;5006359;28;20049;-84
2022/03/22 06:06:00;;;;;;;53.00;36.60;;;4.40;99.90;;;;;;4930359;28;175764;-85
2022/03/22 06:08:29;;;;;;;53.28;36.53;;;4.40;99.90;;;;;;5001815;28;20057;-84
2022/03/22 06:10:56;;;;;;;53.95;36.25;;;4.40;99.90;;;;;;4932430;28;141122;-84
2022/03/22 06:13:22;;;;;;;49.63;34.72;;;4.40;99.90;;;;;;5002459;28;20064;-84
2022/03/22 06:15:49;;;;;;;58.17;35.88;;;4.50;99.90;;;;;;4956628;28;102424;-84
2022/03/22 06:18:15;;;;;;;57.10;36.60;;;4.50;99.90;;;;;;4998433;28;20230;-84
2022/03/22 06:20:42;;;;;;;53.15;37.10;;;4.50;99.90;;;;;;4936253;28;135910;-86
2022/03/22 06:23:10;;;;;;;57.38;37.05;;;4.50;99.90;;;;;;4977364;28;20076;-86
2022/03/22 06:25:37;;;;;;;56.38;38.15;;;4.60;99.90;;;;;;4945707;28;48221;-84
2022/03/22 06:28:09;;;;;;;52.65;37.25;;;4.70;99.90;;;;;;4999371;28;20065;-86
2022/03/22 06:30:39;;;;;;;59.25;38.13;;;4.70;99.90;;;;;;4957019;28;201867;-85
2022/03/22 06:33:12;;;;;;;62.60;37.70;;;4.80;99.90;;;;;;4979525;28;20601;-85
2022/03/22 06:35:40;;;;;;;56.53;38.50;;;4.80;99.90;;;;;;4939325;28;66772;-84
2022/03/22 06:38:06;;;;;;;51.92;35.42;;;4.90;99.90;;;;;;4977088;28;20057;-86
2022/03/22 06:40:34;;;;;;;59.28;38.08;;;5.00;99.90;;;;;;4933591;28;34381;-85
2022/03/22 06:43:05;;;;;;;53.85;37.53;;;5.10;99.90;;;;;;4990642;28;20057;-86
2022/03/22 06:45:31;;;;;;;;;;;5.10;99.90;;;;;;4942229;28;109700;-85
2022/03/22 06:48:00;;;;;;;51.67;34.55;;;5.20;99.90;;;;;;4986853;28;19925;-85
2022/03/22 06:50:26;;;;;;;56.00;37.83;;;5.30;99.90;;;;;;4921160;28;117058;-85
2022/03/22 06:52:53;;;;;;;55.67;38.33;;;5.30;99.90;;;;;;4992635;28;20030;-85
2022/03/22 06:55:22;;;;;;;53.28;36.45;;;5.40;99.90;;;;;;4950748;28;246615;-84
2022/03/22 06:57:52;;;;;;;53.20;34.60;;;5.50;99.90;;;;;;4973568;28;20058;-85
2022/03/22 07:00:19;;;;;;;59.35;34.97;;;5.50;99.90;;;;;;4943836;28;83099;-85
2022/03/22 07:02:49;;;;;;;48.30;34.53;;;5.70;99.90;;;;;;4994598;28;20054;-85
2022/03/22 07:05:16;;;;;;;48.58;35.47;;;5.80;99.90;;;;;;4916428;28;137865;-85
2022/03/22 07:07:43;;;;;;;51.50;34.53;;;5.90;99.90;;;;;;4972971;28;20042;-85
2022/03/22 07:10:14;;;;;;;50.22;34.88;;;6.00;99.90;;;;;;4933964;28;100917;-85
2022/03/22 07:12:48;;;;;;;54.70;35.83;;;6.20;99.90;;;;;;4973035;28;20419;-86
2022/03/22 07:15:14;;;;;;;46.95;32.95;;;6.30;99.90;;;;;;4926106;28;209919;-86
2022/03/22 07:17:40;;;;;;;49.88;33.78;;;6.40;99.90;;;;;;4974107;28;20054;-86
2022/03/22 07:20:07;;;;;;;47.83;34.67;;;6.50;99.90;;;;;;4925769;28;136800;-86
2022/03/22 07:22:33;;;;;;;46.45;33.28;;;6.60;99.90;;;;;;4970392;28;20047;-86
2022/03/22 07:25:00;;;;;;;51.35;33.88;;;6.80;99.90;;;;;;4956617;28;202812;-86
2022/03/22 07:27:26;;;;;;;48.53;33.28;;;6.90;99.90;;;;;;4988952;28;20072;-86
2022/03/22 07:29:53;;;;;;;44.28;32.05;;;7.00;99.90;;;;;;4955215;28;226972;-86
2022/03/22 07:32:19;;;;;;;48.97;32.83;;;7.10;99.90;;;;;;4986062;28;20061;-86
2022/03/22 07:34:45;;;;;;;42.72;31.00;;;7.30;99.90;;;;;;4950743;28;107267;-87
2022/03/22 07:37:14;;;;;;;47.40;32.35;;;7.40;99.90;;;;;;4992589;28;20057;-85
2022/03/22 07:39:40;;;;;;;42.40;31.30;;;7.60;99.90;;;;;;4953005;28;174054;-86
2022/03/22 07:42:06;;;;;;;47.97;30.63;;;7.90;99.90;;;;;;4996457;28;20042;-85
2022/03/22 07:44:32;;;;;;;42.88;29.88;;;8.10;99.90;;;;;;4946345;28;99441;-86
2022/03/22 07:46:59;;;;;;;43.65;30.13;;;8.30;99.90;;;;;;4990702;28;20061;-86
2022/03/22 07:54:54;;;;;;;38.80;27.85;;;9.10;99.90;;;;;;4952102;28;47659;-86
2022/03/22 07:57:21;;;;;;;40.80;27.67;;;9.70;99.90;;;;;;4979221;28;20054;-86
2022/03/22 07:59:47;;;;;;;38.28;26.05;;;10.20;99.90;;;;;;4937541;28;74323;-86
2022/03/22 08:02:13;;;;;;;38.25;25.30;;;10.90;99.90;;;;;;4978927;28;20057;-86
2022/03/22 08:04:39;;;;;;;36.35;24.63;;;11.40;99.90;;;;;;4940655;28;102635;-86
2022/03/22 08:07:07;;;;;;;35.95;24.48;;;11.80;99.90;;;;;;4973139;28;20508;-86
2022/03/22 08:09:33;;;;;;;37.70;25.67;;;12.10;99.90;;;;;;4955447;28;31804;-86
2022/03/22 08:11:59;;;;;;;35.38;24.05;;;12.50;99.90;;;;;;5007900;28;20049;-86
2022/03/22 08:14:26;;;;;;;33.13;24.48;;;12.80;99.90;;;;;;4972137;28;76967;-87
2022/03/22 08:16:52;;;;;;;32.92;23.45;;;13.10;99.90;;;;;;4996223;28;20046;-87
2022/03/22 08:19:18;;;;;;;37.92;24.40;;;13.20;99.90;;;;;;4974786;28;51417;-88
2022/03/22 08:21:48;;;;;;;31.35;23.88;;;13.50;99.90;;;;;;4946633;28;20050;-86
2022/03/22 08:24:14;;;;;;;31.55;23.80;;;13.90;99.90;;;;;;4985719;28;248269;-86
2022/03/22 08:26:40;;;;;;;33.72;24.17;;;14.20;99.90;;;;;;4945402;28;20042;-86
2022/03/22 08:29:07;;;;;;;32.38;23.60;;;14.60;99.90;;;;;;4972703;28;248619;-87
2022/03/22 08:31:35;;;;;;;31.98;23.10;;;15.00;99.90;;;;;;4973941;28;20038;-86
2022/03/22 08:34:02;;;;;;;30.10;22.90;;;15.30;99.00;;;;;;4962420;28;262782;-85
2022/03/22 08:36:28;;;;;;;31.08;23.60;;;15.60;99.30;;;;;;4960186;28;20050;-86
2022/03/22 08:38:54;;;;;;;31.38;22.90;;;16.00;99.00;;;;;;4979932;28;274521;-86
2022/03/22 08:41:20;;;;;;;28.95;21.80;;;16.50;98.60;;;;;;4962059;28;20434;-86
2022/03/22 08:43:47;;;;;;;29.73;22.02;;;16.90;97.80;;;;;;4996552;28;20077;-86
2022/03/22 08:46:14;;;;;;;28.88;22.05;;;17.10;94.00;;;;;;4945581;28;20052;-86
2022/03/22 08:48:40;;;;;;;36.28;22.25;;;17.10;90.90;;;;;;4979014;28;20054;-86
2022/03/22 08:51:06;;;;;;;29.88;22.80;;;17.20;90.50;;;;;;4947584;28;180215;-86
2022/03/22 08:53:32;;;;;;;32.05;21.77;;;17.30;90.70;;;;;;4984556;28;20055;-86
2022/03/22 08:56:03;;;;;;;32.50;22.05;;;17.40;86.00;;;;;;4939906;28;172233;-86
2022/03/22 08:58:29;;;;;;;36.05;21.73;;;17.50;71.50;;;;;;4985648;28;20058;-86
2022/03/22 09:00:56;;;;;;;28.92;22.80;;;17.30;74.60;;;;;;4940865;28;32976;-85
2022/03/22 09:03:23;;;;;;;28.05;21.20;;;17.40;78.80;;;;;;4990658;28;20301;-86
2022/03/22 09:06:08;;;;;;;34.47;21.15;;;17.80;78.60;;;;;;4929132;28;119647;-86
2022/03/22 09:08:39;;;;;;;30.17;21.50;;;18.10;75.10;;;;;;4992454;28;20050;-86
2022/03/22 09:11:08;;;;;;;28.27;21.65;;;18.20;73.10;;;;;;4945668;28;171261;-86
2022/03/22 09:13:37;;;;;;;26.40;21.08;;;18.50;70.00;;;;;;4991645;28;20047;-87
2022/03/22 09:16:05;;;;;;;27.33;21.75;;;18.60;70.90;;;;;;4949781;28;155165;-87
2022/03/22 09:18:31;;;;;;;28.20;21.40;;;18.50;69.40;;;;;;4994146;28;20061;-87
2022/03/22 09:20:58;;;;;;;28.02;21.35;;;18.80;72.90;;;;;;4937461;28;26415;-86
2022/03/22 09:23:24;;;;;;;28.95;21.15;;;19.30;72.10;;;;;;4978006;28;20258;-87
2022/03/22 09:25:50;;;;;;;27.45;21.35;;;19.70;72.00;;;;;;4947760;28;20046;-87
2022/03/22 09:28:16;;;;;;;29.08;20.92;;;20.10;70.50;;;;;;4985565;28;20056;-87
2022/03/22 09:30:43;;;;;;;28.77;20.58;;;20.50;68.70;;;;;;4946948;28;229162;-87
2022/03/22 09:33:11;;;;;;;30.35;21.58;;;20.90;65.50;;;;;;4985132;28;20046;-87
2022/03/22 09:35:37;;;;;;;27.92;20.42;;;20.90;64.30;;;;;;4957175;28;223646;-86
2022/03/22 09:38:04;;;;;;;29.15;21.10;;;20.90;63.00;;;;;;4974265;28;20064;-86
2022/03/22 09:40:30;;;;;;;26.35;20.38;;;21.10;61.60;;;;;;4954803;28;215075;-86
2022/03/22 09:42:57;;;;;;;28.98;20.80;;;21.30;62.00;;;;;;4977122;28;20062;-86
2022/03/22 09:45:30;;;;;;;27.48;20.52;;;21.70;61.50;;;;;;4948501;28;244738;-86
2022/03/22 09:47:59;;;;;;;25.90;21.02;;;21.80;59.20;;;;;;4989839;28;20054;-87
2022/03/22 09:53:13;;;;;;;29.15;20.23;;;22.30;58.40;;;;;;4994577;28;20065;-86
2022/03/22 09:55:40;;;;;;;28.52;21.17;;;22.20;55.20;;;;;;4930876;28;201042;-86
2022/03/22 09:58:06;;;;;;;27.00;20.42;;;22.10;54.90;;;;;;4987601;28;20215;-86
2022/03/22 10:00:32;;;;;;;26.45;20.92;;;22.40;55.10;;;;;;4953106;28;78895;-86
2022/03/22 10:02:59;;;;;;;26.75;20.42;;;22.70;54.20;;;;;;4985104;28;20451;-86
2022/03/22 10:05:26;;;;;;;25.10;20.42;;;23.00;53.50;;;;;;4927637;28;223153;-86
2022/03/22 10:08:04;;;;;;;29.48;19.60;;;23.20;52.50;;;;;;4984659;28;20053;-86
2022/03/22 10:10:30;;;;;;;22.33;18.33;;;23.50;51.00;;;;;;4956636;28;20046;-86
2022/03/22 10:12:59;;;;;;;25.20;20.33;;;23.60;51.00;;;;;;4975398;28;20047;-86
2022/03/22 10:15:36;;;;;;;26.13;19.67;;;23.80;50.20;;;;;;4946483;28;62962;-86
2022/03/22 10:18:06;;;;;;;27.42;20.35;;;24.20;48.70;;;;;;4987874;28;20066;-86
2022/03/22 10:20:34;;;;;;;;;;;24.30;49.30;;;;;;4960197;28;154500;-86
2022/03/22 10:23:01;;;;;;;25.95;19.55;;;24.50;45.60;;;;;;5002913;28;19913;-86
2022/03/22 10:25:32;;;;;;;28.70;19.70;;;24.50;49.50;;;;;;4956391;28;233314;-86
2022/03/22 10:28:01;;;;;;;27.48;19.90;;;24.80;47.70;;;;;;4993417;28;20046;-86
2022/03/22 10:30:28;;;;;;;24.92;19.55;;;25.00;47.40;;;;;;4954523;28;122670;-87
2022/03/22 10:32:54;;;;;;;25.70;19.38;;;25.30;46.80;;;;;;4995680;28;20418;-86
2022/03/22 10:35:32;;;;;;;25.67;20.13;;;25.50;45.70;;;;;;4957689;28;109209;-87
2022/03/22 10:38:00;;;;;;;24.98;19.65;;;25.60;45.00;;;;;;5005900;28;20053;-86
2022/03/22 10:40:32;;;;;;;24.70;19.38;;;25.40;44.60;;;;;;4966486;28;48200;-87
2022/03/22 10:43:01;;;;;;;24.08;18.98;;;25.40;45.30;;;;;;5004027;28;20050;-86
2022/03/22 10:45:45;;;;;;;26.33;19.17;;;25.70;44.10;;;;;;4970541;28;78215;-86
2022/03/22 10:48:19;;;;;;;24.33;19.40;;;26.00;42.60;;;;;;5000660;28;20419;-86
2022/03/22 10:50:49;;;;;;;24.02;18.80;;;26.00;43.00;;;;;;4935296;28;163091;-87
2022/03/22 10:53:26;;;;;;;24.45;17.83;;;26.10;43.30;;;;;;4976507;28;20054;-87
2022/03/22 10:55:53;;;;;;;23.85;18.08;;;26.60;43.30;;;;;;4957754;28;139904;-86
2022/03/22 10:58:22;;;;;;;23.98;18.83;;;26.90;43.50;;;;;;4980689;28;20511;-86
2022/03/22 11:00:49;;;;;;;23.13;17.33;;;27.20;42.30;;;;;;4943904;28;213877;-87
2022/03/22 11:03:19;;;;;;;24.13;18.05;;;27.40;42.80;;;;;;4991856;28;20378;-87
2022/03/22 11:05:49;;;;;;;25.60;17.63;;;27.70;42.90;;;;;;4907194;28;250479;-87
2022/03/22 11:08:22;;;;;;;23.30;17.85;;;28.00;41.70;;;;;;4972281;28;20072;-87
2022/03/22 11:10:50;;;;;;;23.30;18.50;;;28.20;41.70;;;;;;4945010;28;103309;-87
2022/03/22 11:13:16;;;;;;;23.98;17.83;;;28.40;40.60;;;;;;4983249;28;20615;-87
2022/03/22 11:15:46;;;;;;;22.40;18.23;;;28.40;40.80;;;;;;4960535;28;255080;-86
2022/03/22 11:18:14;;;;;;;23.85;18.10;;;28.60;39.50;;;;;;4999091;28;20054;-87
2022/03/22 11:20:56;;;;;;;24.98;18.00;;;28.60;39.90;;;;;;4944090;28;204353;-87
2022/03/22 11:23:24;;;;;;;26.40;19.48;;;28.70;38.70;;;;;;4999089;28;20537;-86
2022/03/22 11:25:51;;;;;;;22.50;18.23;;;28.50;38.50;;;;;;4932509;28;103755;-87
2022/03/22 11:28:22;;;;;;;21.45;17.13;;;28.30;38.00;;;;;;5001975;28;20038;-86
2022/03/22 11:30:50;;;;;;;21.23;17.27;;;28.20;39.10;;;;;;4947269;28;207763;-86
2022/03/22 11:36:19;;;;;;;23.08;17.60;;;28.90;39.40;;;;;;4965555;28;146384;-87
2022/03/22 11:38:53;;;;;;;25.52;17.98;;;29.20;37.40;;;;;;4989371;28;20073;-87
2022/03/22 11:44:12;;;;;;;26.00;18.97;;;29.10;36.20;;;;;;4980990;28;255105;-87
2022/03/22 11:46:39;;;;;;;23.70;17.88;;;28.90;36.70;;;;;;4955339;28;20097;-87
2022/03/22 11:49:21;;;;;;;20.42;17.20;;;28.80;37.60;;;;;;4963255;28;258852;-87
2022/03/22 11:51:49;;;;;;;26.08;18.33;;;29.30;37.90;;;;;;4940091;28;20046;-87
2022/03/22 11:54:16;;;;;;;25.45;18.48;;;29.50;36.80;;;;;;4968430;28;152008;-87
2022/03/22 11:56:47;;;;;;;27.58;17.75;;;29.70;37.80;;;;;;4939383;28;20093;-87
2022/03/22 11:59:18;;;;;;;24.88;18.52;;;29.90;36.30;;;;;;4972005;28;104681;-87
2022/03/22 12:02:03;;;;;;;21.05;16.75;;;29.80;35.20;;;;;;4960939;28;20379;-85
2022/03/22 12:04:39;;;;;;;23.55;16.83;;;29.90;34.60;;;;;;4944307;28;125914;-86
2022/03/22 12:07:08;;;;;;;28.17;17.42;;;29.70;34.50;;;;;;4981312;28;20050;-86
2022/03/22 12:09:41;;;;;;;22.75;17.52;;;29.60;34.90;;;;;;4963234;28;68923;-86
2022/03/22 12:12:13;;;;;;;27.13;17.50;;;29.50;35.50;;;;;;4973450;28;20348;-86
2022/03/22 12:14:42;;;;;;;24.98;18.20;;;29.50;35.30;;;;;;4949230;28;72099;-87
2022/03/22 12:17:08;;;;;;;22.90;17.00;;;29.60;35.20;;;;;;4985315;28;20057;-88
2022/03/22 12:19:35;;;;;;;22.90;16.35;;;29.90;36.80;;;;;;4962305;28;61375;-87
2022/03/22 12:22:04;;;;;;;23.67;16.67;;;30.30;35.80;;;;;;4997376;28;20050;-87
2022/03/22 12:24:33;;;;;;;23.38;17.20;;;30.00;35.70;;;;;;4976758;28;24092;-86
2022/03/22 12:27:02;;;;;;;24.35;16.73;;;30.30;36.40;;;;;;4981312;28;20391;-87
2022/03/22 12:29:28;;;;;;;22.77;16.58;;;30.60;35.90;;;;;;4969578;28;86293;-87
2022/03/22 12:31:55;;;;;;;23.48;15.88;;;30.40;35.00;;;;;;4991153;28;20058;-86
2022/03/22 12:34:26;;;;;;;25.02;16.45;;;30.40;34.90;;;;;;4961112;28;65742;-87
2022/03/22 12:36:53;;;;;;;20.63;15.73;;;30.40;35.40;;;;;;4989113;28;20049;-89
2022/03/22 12:39:23;;;;;;;21.60;16.10;;;30.60;35.00;;;;;;4966393;28;254110;-87
2022/03/22 12:41:49;;;;;;;21.77;15.75;;;30.00;34.30;;;;;;4963810;28;20053;-87
2022/03/22 12:44:15;;;;;;;22.58;16.02;;;29.90;35.30;;;;;;4976163;28;126771;-87
2022/03/22 12:46:41;;;;;;;23.67;15.65;;;29.50;34.40;;;;;;4978939;28;20042;-88
2022/03/22 12:49:09;;;;;;;25.45;15.98;;;29.80;34.60;;;;;;4974825;28;252022;-86
2022/03/22 12:51:35;;;;;;;23.27;15.98;;;30.00;34.50;;;;;;4972340;28;20044;-86
2022/03/22 12:54:03;;;;;;;23.57;16.40;;;29.70;33.20;;;;;;4971969;28;252527;-86
2022/03/22 12:56:31;;;;;;;20.52;14.65;;;29.40;34.70;;;;;;4940522;28;20050;-87
2022/03/22 12:58:57;;;;;;;21.13;16.35;;;29.20;35.60;;;;;;4998167;28;272535;-88
2022/03/22 13:01:23;;;;;;;24.75;17.15;;;29.20;35.20;;;;;;4962032;28;20052;-86
2022/03/22 13:03:50;;;;;;;25.20;17.63;;;29.10;34.80;;;;;;4991925;28;260148;-86
2022/03/22 13:06:18;;;;;;;26.25;18.23;;;29.00;34.20;;;;;;4947962;28;20057;-86
2022/03/22 13:11:32;;;;;;;23.38;16.05;;;28.90;34.00;;;;;;4953910;28;20048;-86